Overview Statistics Trail Chart Weather Telemetry Raw packets
 

This is the latest recevied weather packets stored in our database for station/object EA3DJ-10. If no packets are shown the sender has not sent any weather packets the latest 10 day(s).

<< 7 8 9 10 11 12 13 >>
Time Temp. Humidity Pressure Rain* Wind** Luminosity Snow
1788373236 24.44° C 52% 1022.1 hPa - - - -
1788372036 26.11° C 54% 1021.9 hPa - - - -
1788370850 25° C 56% 1021.8 hPa - - - -
1788369675 24.44° C 49% 1021.8 hPa - - - -
1788369635 24.44° C 49% 1021.8 hPa - - - -
1788368435 26.11° C 53% 1021.7 hPa - - - -
1788367276 24.44° C 47% 1021.8 hPa - - - -
1788367235 24.44° C 47% 1021.8 hPa - - - -
1788366035 26.11° C 51% 1021.8 hPa - - - -
1788364835 25° C 49% 1021.9 hPa - - - -
1788363635 25° C 45% 1022 hPa - - - -
1788362466 27.22° C 44% 1021.9 hPa - - - -
1788362435 27.22° C 44% 1021.9 hPa - - - -
1788361235 27.22° C 44% 1022 hPa - - - -
1788360079 27.22° C 42% 1022 hPa - - - -
1788360035 27.22° C 42% 1022 hPa - - - -
1788358870 26.67° C 41% 1022.2 hPa - - - -
1788358834 26.67° C 41% 1022.2 hPa - - - -
1788357677 26.11° C 41% 1022.4 hPa - - - -
1788357634 26.11° C 41% 1022.4 hPa - - - -
1788356434 25° C 44% 1022.6 hPa - - - -
1788355266 26.67° C 49% 1022.7 hPa - - - -
1788355234 26.67° C 49% 1022.7 hPa - - - -
1788354034 27.78° C 48% 1022.7 hPa - - - -
1788352866 27.78° C 48% 1022.7 hPa - - - -

* Rain since midnight (hover to see other rain measurements)
** Current wind speed in m/s (hover to see current wind gust speed)